createdAt,value
2023-11-07T00:01:33.430Z,10.70
2023-11-07T00:04:04.023Z,11.52
2023-11-07T00:06:35.785Z,9.35
2023-11-07T00:09:05.844Z,10.07
2023-11-07T00:11:33.113Z,9.25
2023-11-07T00:14:01.650Z,9.07
2023-11-07T00:16:31.387Z,8.77
2023-11-07T00:18:58.909Z,8.23
2023-11-07T00:21:26.689Z,6.38
2023-11-07T00:24:02.429Z,6.93
2023-11-07T00:26:33.016Z,7.43
2023-11-07T00:29:01.270Z,6.22
2023-11-07T00:31:28.619Z,5.80
2023-11-07T00:33:56.267Z,5.30
2023-11-07T00:36:23.922Z,6.43
2023-11-07T00:38:51.417Z,4.90
2023-11-07T00:41:22.089Z,4.88
2023-11-07T00:43:52.388Z,5.72
2023-11-07T00:46:21.745Z,7.50
2023-11-07T00:48:49.643Z,5.25
2023-11-07T00:51:17.406Z,7.40
2023-11-07T00:53:45.111Z,5.07
2023-11-07T00:56:16.414Z,4.95
2023-11-07T00:58:44.908Z,6.07
2023-11-07T01:01:12.587Z,5.57
2023-11-07T01:03:39.979Z,6.40
2023-11-07T01:06:08.041Z,7.15
2023-11-07T01:08:40.044Z,5.03
2023-11-07T01:11:07.707Z,6.18
2023-11-07T01:13:35.158Z,5.60
2023-11-07T01:16:06.385Z,4.97
2023-11-07T01:18:33.949Z,5.82
2023-11-07T01:21:02.839Z,6.65
2023-11-07T01:23:30.115Z,8.07
2023-11-07T01:25:57.436Z,8.52
2023-11-07T01:28:25.037Z,6.35
2023-11-07T01:30:52.362Z,6.40
2023-11-07T01:33:19.704Z,6.68
2023-11-07T01:35:47.449Z,7.43
2023-11-07T01:38:14.772Z,8.27
2023-11-07T01:40:43.469Z,7.03
2023-11-07T01:43:17.540Z,7.45
2023-11-07T01:45:45.148Z,7.28
2023-11-07T01:48:23.876Z,10.00
2023-11-07T01:50:51.758Z,7.65
2023-11-07T01:53:21.778Z,6.72
2023-11-07T01:55:55.034Z,8.80
2023-11-07T01:58:25.775Z,7.22
2023-11-07T02:00:55.747Z,8.90
2023-11-07T02:03:26.646Z,7.63
2023-11-07T02:05:58.160Z,8.13
2023-11-07T02:08:30.024Z,8.70
2023-11-07T02:13:25.265Z,6.78
2023-11-07T02:15:55.874Z,9.30
2023-11-07T02:18:23.577Z,7.72
2023-11-07T02:20:53.212Z,7.47
2023-11-07T02:23:34.043Z,6.90
2023-11-07T02:26:05.162Z,6.97
2023-11-07T02:28:33.801Z,9.55
2023-11-07T02:31:05.244Z,17.45
2023-11-07T02:33:34.223Z,16.95
2023-11-07T02:36:01.737Z,25.05
2023-11-07T02:38:30.358Z,15.27
2023-11-07T02:40:57.854Z,10.07
2023-11-07T02:43:29.818Z,8.63
2023-11-07T02:45:57.027Z,6.32
2023-11-07T02:48:35.839Z,7.47
2023-11-07T02:51:03.481Z,7.25
2023-11-07T02:53:33.191Z,7.60
2023-11-07T02:56:03.967Z,6.95
2023-11-07T02:58:34.978Z,6.15
2023-11-07T03:01:02.830Z,7.68
2023-11-07T03:03:36.448Z,7.57
2023-11-07T03:06:05.026Z,8.02
2023-11-07T03:08:33.366Z,6.65
2023-11-07T03:11:00.890Z,7.88
2023-11-07T03:13:28.261Z,7.30
2023-11-07T03:15:58.831Z,7.28
2023-11-07T03:18:26.577Z,5.90
2023-11-07T03:20:54.341Z,10.70
2023-11-07T03:23:21.680Z,8.55
2023-11-07T03:25:49.710Z,6.95
2023-11-07T03:28:27.438Z,7.50
2023-11-07T03:30:54.808Z,10.48
2023-11-07T03:33:25.298Z,7.88
2023-11-07T03:35:57.962Z,7.18
2023-11-07T03:38:25.731Z,7.38
2023-11-07T03:40:56.441Z,8.77
2023-11-07T03:43:23.944Z,8.13
2023-11-07T03:45:51.318Z,8.00
2023-11-07T03:48:18.614Z,8.23
2023-11-07T03:50:45.903Z,7.53
2023-11-07T03:53:13.277Z,9.07
2023-11-07T03:55:43.511Z,5.68
2023-11-07T03:58:10.724Z,6.60
2023-11-07T04:00:38.311Z,7.25
2023-11-07T04:03:05.717Z,7.15
2023-11-07T04:05:36.903Z,7.78
2023-11-07T04:08:08.316Z,5.60
2023-11-07T04:10:35.951Z,6.38
2023-11-07T04:13:06.627Z,4.43
2023-11-07T04:15:33.943Z,9.82
2023-11-07T04:18:04.761Z,5.32
2023-11-07T04:20:37.253Z,7.90
2023-11-07T04:23:07.926Z,6.72
2023-11-07T04:25:35.742Z,7.70
2023-11-07T04:28:04.938Z,7.43
2023-11-07T04:30:35.585Z,7.70
2023-11-07T04:33:04.444Z,6.10
2023-11-07T04:35:35.964Z,6.60
2023-11-07T04:38:05.975Z,4.18
2023-11-07T04:40:36.494Z,5.35
2023-11-07T04:43:10.273Z,4.07
2023-11-07T04:45:45.218Z,4.35
2023-11-07T04:48:15.497Z,6.78
2023-11-07T04:50:45.842Z,8.32
2023-11-07T04:53:13.170Z,6.18
2023-11-07T04:55:40.712Z,5.78
2023-11-07T04:58:07.976Z,4.93
2023-11-07T05:00:35.408Z,4.57
2023-11-07T05:03:06.718Z,5.80
2023-11-07T05:05:37.094Z,5.50
2023-11-07T05:08:08.089Z,5.32
2023-11-07T05:10:36.952Z,5.47
2023-11-07T05:13:04.242Z,4.05
2023-11-07T05:15:31.873Z,6.78
2023-11-07T05:18:03.551Z,5.75
2023-11-07T05:22:58.209Z,7.28
2023-11-07T05:25:28.039Z,8.45
2023-11-07T05:27:55.421Z,3.67
2023-11-07T05:30:22.649Z,9.30
2023-11-07T05:32:53.068Z,6.32
2023-11-07T05:35:24.680Z,10.50
2023-11-07T05:40:35.015Z,6.72
2023-11-07T05:43:03.034Z,5.90
2023-11-07T05:45:30.634Z,5.07
2023-11-07T05:48:07.178Z,4.53
2023-11-07T05:50:37.196Z,6.00
2023-11-07T05:53:05.408Z,9.43
2023-11-07T05:55:32.745Z,5.30
2023-11-07T05:58:00.582Z,7.13
2023-11-07T06:00:29.488Z,7.78
2023-11-07T06:02:57.613Z,5.90
2023-11-07T06:05:30.175Z,6.43
2023-11-07T06:07:59.034Z,5.32
2023-11-07T06:10:26.527Z,8.35
2023-11-07T06:12:57.411Z,7.97
2023-11-07T06:15:29.343Z,7.68
2023-11-07T06:17:56.722Z,11.20
2023-11-07T06:20:25.365Z,6.15
2023-11-07T06:22:56.220Z,6.30
2023-11-07T06:25:26.378Z,6.35
2023-11-07T06:27:54.448Z,7.20
2023-11-07T06:30:30.733Z,8.75
2023-11-07T06:33:02.390Z,8.48
2023-11-07T06:35:30.943Z,8.55
2023-11-07T06:38:05.779Z,6.72
2023-11-07T06:40:35.914Z,6.90
2023-11-07T06:43:06.728Z,5.55
2023-11-07T06:45:33.814Z,5.40
2023-11-07T06:48:09.838Z,5.40
2023-11-07T06:50:49.472Z,9.65
2023-11-07T06:53:24.663Z,10.10
2023-11-07T06:55:53.871Z,9.13
2023-11-07T06:58:23.596Z,7.57
2023-11-07T07:00:58.623Z,5.43
2023-11-07T07:03:28.849Z,5.55
2023-11-07T07:05:56.462Z,8.27
2023-11-07T07:08:24.847Z,7.30
2023-11-07T07:10:53.378Z,5.82
2023-11-07T07:13:21.329Z,10.80
2023-11-07T07:15:52.264Z,9.88
2023-11-07T07:18:22.149Z,8.25
2023-11-07T07:20:55.033Z,7.60
2023-11-07T07:23:26.272Z,6.72
2023-11-07T07:26:02.497Z,9.50
2023-11-07T07:28:30.540Z,21.02
2023-11-07T07:31:21.904Z,11.20
2023-11-07T07:33:59.052Z,9.20
2023-11-07T07:36:28.757Z,9.40
2023-11-07T07:38:56.809Z,17.55
2023-11-07T07:41:25.440Z,11.73
2023-11-07T07:43:56.408Z,6.07
2023-11-07T07:46:29.598Z,4.88
2023-11-07T07:48:58.100Z,8.18
2023-11-07T07:51:25.806Z,7.00
2023-11-07T07:53:56.306Z,8.00
2023-11-07T07:56:25.171Z,8.45
2023-11-07T07:58:52.734Z,8.80
2023-11-07T08:01:30.135Z,6.32
2023-11-07T08:03:57.374Z,4.90
2023-11-07T08:06:25.274Z,5.55
2023-11-07T08:08:57.936Z,9.27
2023-11-07T08:11:31.263Z,6.03
2023-11-07T08:13:58.983Z,5.90
2023-11-07T08:16:27.168Z,7.13
2023-11-07T08:18:56.387Z,6.13
2023-11-07T08:21:39.903Z,6.57
2023-11-07T08:24:15.192Z,7.00
2023-11-07T08:26:43.902Z,5.25
2023-11-07T08:29:15.615Z,9.75
2023-11-07T08:34:10.942Z,5.18
2023-11-07T08:36:48.307Z,3.72
2023-11-07T08:39:28.768Z,5.13
2023-11-07T08:41:57.612Z,7.85
2023-11-07T08:44:33.505Z,6.93
2023-11-07T08:47:17.384Z,7.20
2023-11-07T08:49:44.799Z,9.27
2023-11-07T08:52:15.383Z,6.20
2023-11-07T08:54:45.858Z,8.20
2023-11-07T08:57:13.225Z,6.15
2023-11-07T08:59:46.337Z,6.95
2023-11-07T09:02:17.287Z,6.80
2023-11-07T09:04:44.839Z,6.57
2023-11-07T09:07:18.083Z,7.43
2023-11-07T09:09:48.106Z,5.72
2023-11-07T09:12:15.425Z,6.40
2023-11-07T09:14:42.735Z,6.05
2023-11-07T09:17:10.105Z,4.38
2023-11-07T09:19:41.644Z,4.88
2023-11-07T09:22:27.629Z,4.43
2023-11-07T09:24:56.674Z,4.97
2023-11-07T09:27:26.108Z,3.33
2023-11-07T09:29:58.627Z,4.15
2023-11-07T09:32:38.432Z,5.22
2023-11-07T09:36:15.554Z,4.40
2023-11-07T09:38:46.976Z,3.72
2023-11-07T09:41:29.119Z,4.00
2023-11-07T09:43:56.938Z,5.65
2023-11-07T09:46:35.443Z,4.20
2023-11-07T09:49:49.208Z,3.53
2023-11-07T09:52:54.974Z,5.88
2023-11-07T09:55:24.892Z,3.42
2023-11-07T09:58:18.033Z,4.60
2023-11-07T10:00:55.746Z,3.13
2023-11-07T10:03:27.310Z,4.47
2023-11-07T10:06:11.977Z,4.72
2023-11-07T10:08:39.743Z,3.92
2023-11-07T10:11:14.293Z,6.30
2023-11-07T10:17:01.582Z,4.55
2023-11-07T10:19:31.824Z,4.13
2023-11-07T10:22:04.708Z,8.85
2023-11-07T10:24:54.513Z,3.63
2023-11-07T10:27:32.237Z,4.15
2023-11-07T10:30:00.425Z,3.78
2023-11-07T10:32:49.295Z,3.60
2023-11-07T10:35:18.314Z,3.47
2023-11-07T10:37:47.079Z,5.85
2023-11-07T10:40:22.918Z,3.90
2023-11-07T10:42:54.401Z,3.72
2023-11-07T10:45:23.293Z,5.65
2023-11-07T10:47:51.509Z,3.38
2023-11-07T10:50:20.244Z,2.08
2023-11-07T10:52:51.620Z,3.65
2023-11-07T10:55:27.473Z,3.88
2023-11-07T10:58:03.727Z,3.00
2023-11-07T11:03:24.413Z,2.92
2023-11-07T11:06:04.124Z,4.78
2023-11-07T11:08:36.700Z,4.88
2023-11-07T11:11:05.252Z,3.92
2023-11-07T11:13:34.186Z,3.97
2023-11-07T11:16:02.898Z,3.88
2023-11-07T11:18:40.828Z,2.97
2023-11-07T11:21:19.654Z,3.25
2023-11-07T11:24:05.774Z,1.80
2023-11-07T11:26:46.326Z,4.07
2023-11-07T11:29:28.277Z,3.72
2023-11-07T11:31:57.917Z,6.03
2023-11-07T11:34:38.645Z,2.97
2023-11-07T11:37:12.585Z,5.05
2023-11-07T11:39:47.002Z,5.80
2023-11-07T11:42:17.669Z,4.03
2023-11-07T11:44:48.476Z,3.80
2023-11-07T11:47:54.605Z,3.75
2023-11-07T11:50:23.032Z,2.35
2023-11-07T11:52:57.487Z,3.78
2023-11-07T11:55:24.930Z,2.47
2023-11-07T11:58:12.902Z,5.32
2023-11-07T12:00:42.334Z,3.35
2023-11-07T12:03:18.976Z,4.68
2023-11-07T12:06:09.514Z,5.03
2023-11-07T12:08:48.773Z,3.17
2023-11-07T12:11:18.775Z,5.07
2023-11-07T12:13:46.330Z,3.58
2023-11-07T12:16:21.138Z,4.43
2023-11-07T12:18:52.043Z,5.03
2023-11-07T12:21:36.336Z,5.32
2023-11-07T12:24:12.837Z,5.75
2023-11-07T12:26:43.202Z,5.88
2023-11-07T12:29:11.836Z,3.97
2023-11-07T12:31:45.141Z,5.70
2023-11-07T12:34:15.533Z,7.47
2023-11-07T12:36:47.898Z,6.30
2023-11-07T12:39:19.921Z,8.07
2023-11-07T12:41:47.442Z,8.70
2023-11-07T12:44:17.668Z,11.75
2023-11-07T12:46:49.869Z,9.10
2023-11-07T12:49:21.329Z,5.82
2023-11-07T12:51:49.686Z,3.67
2023-11-07T12:54:25.976Z,4.78
2023-11-07T12:57:01.149Z,5.15
2023-11-07T12:59:36.134Z,3.55
2023-11-07T13:02:04.830Z,7.07
2023-11-07T13:04:35.811Z,4.15
2023-11-07T13:07:23.985Z,1.70
2023-11-07T13:09:51.667Z,5.32
2023-11-07T13:12:31.920Z,5.03
2023-11-07T13:15:04.565Z,5.93
2023-11-07T13:17:39.939Z,4.22
2023-11-07T13:20:15.277Z,4.82
2023-11-07T13:22:43.463Z,6.15
2023-11-07T13:25:19.704Z,4.55
2023-11-07T13:27:55.342Z,4.40
2023-11-07T13:32:52.325Z,4.30
2023-11-07T13:35:20.246Z,3.17
2023-11-07T13:37:51.942Z,5.28
2023-11-07T13:40:19.374Z,2.53
2023-11-07T13:42:46.816Z,4.07
2023-11-07T13:45:14.636Z,4.18
2023-11-07T13:47:50.964Z,5.80
2023-11-07T13:50:22.787Z,2.72
2023-11-07T13:52:57.231Z,4.57
2023-11-07T13:55:28.969Z,5.13
2023-11-07T13:58:00.189Z,7.45
2023-11-07T14:00:33.295Z,3.45
2023-11-07T14:03:10.412Z,4.25
2023-11-07T14:05:48.032Z,4.45
2023-11-07T14:08:26.877Z,2.88
2023-11-07T14:11:00.544Z,4.28
2023-11-07T14:13:28.378Z,6.88
2023-11-07T14:16:00.173Z,5.88
2023-11-07T14:18:28.281Z,3.38
2023-11-07T14:20:59.682Z,2.60
2023-11-07T14:26:12.427Z,4.00
2023-11-07T14:28:50.782Z,3.60
2023-11-07T14:34:13.238Z,4.18
2023-11-07T14:36:41.410Z,5.70
2023-11-07T14:39:13.990Z,3.85
2023-11-07T14:41:41.960Z,2.90
2023-11-07T14:44:13.542Z,3.28
2023-11-07T14:46:42.044Z,6.93
2023-11-07T14:49:21.179Z,6.85
2023-11-07T14:51:59.173Z,7.50
2023-11-07T14:54:32.828Z,7.13
2023-11-07T14:57:09.831Z,7.18
2023-11-07T14:59:38.836Z,5.40
2023-11-07T15:02:14.642Z,4.82
2023-11-07T15:04:56.988Z,7.60
2023-11-07T15:07:24.611Z,6.35
2023-11-07T15:10:03.400Z,4.57
2023-11-07T15:12:31.891Z,4.50
2023-11-07T15:15:00.469Z,7.90
2023-11-07T15:17:28.111Z,10.60
2023-11-07T15:19:57.918Z,5.95
2023-11-07T15:22:25.917Z,7.82
2023-11-07T15:24:53.759Z,10.48
2023-11-07T15:27:21.126Z,3.35
2023-11-07T15:29:50.375Z,6.05
2023-11-07T15:32:18.239Z,3.58
2023-11-07T15:34:45.686Z,4.35
2023-11-07T15:37:19.753Z,6.53
2023-11-07T15:39:49.013Z,7.13
2023-11-07T15:42:16.542Z,6.95
2023-11-07T15:44:44.176Z,4.28
2023-11-07T15:47:11.685Z,4.70
2023-11-07T15:49:41.439Z,6.22
2023-11-07T15:52:10.876Z,4.55
2023-11-07T15:54:38.427Z,3.72
2023-11-07T15:57:06.850Z,4.20
2023-11-07T15:59:34.761Z,4.28
2023-11-07T16:02:07.354Z,7.32
2023-11-07T16:04:37.792Z,5.68
2023-11-07T16:07:05.895Z,3.83
2023-11-07T16:09:38.115Z,7.85
2023-11-07T16:12:10.316Z,5.03
2023-11-07T16:14:38.715Z,6.10
2023-11-07T16:17:09.227Z,4.60
2023-11-07T16:19:36.721Z,8.40
2023-11-07T16:22:05.785Z,9.50
2023-11-07T16:24:36.590Z,5.53
2023-11-07T16:27:10.714Z,8.15
2023-11-07T16:29:41.678Z,7.13
2023-11-07T16:32:14.300Z,4.32
2023-11-07T16:34:45.655Z,6.38
2023-11-07T16:37:14.333Z,3.90
2023-11-07T16:39:42.712Z,3.25
2023-11-07T16:42:13.250Z,8.38
2023-11-07T16:44:44.053Z,4.82
2023-11-07T16:47:12.854Z,5.28
2023-11-07T16:49:44.735Z,4.32
2023-11-07T16:52:18.306Z,6.93
2023-11-07T16:54:46.380Z,5.78
2023-11-07T16:57:14.285Z,2.75
2023-11-07T16:59:43.359Z,4.60
2023-11-07T17:02:14.430Z,4.45
2023-11-07T17:04:44.678Z,7.85
2023-11-07T17:07:13.849Z,6.43
2023-11-07T17:09:47.594Z,3.30
2023-11-07T17:12:14.941Z,4.68
2023-11-07T17:14:45.349Z,4.30
2023-11-07T17:17:13.729Z,4.45
2023-11-07T17:19:41.964Z,3.13
2023-11-07T17:22:13.761Z,4.90
2023-11-07T17:24:41.213Z,4.28
2023-11-07T17:27:13.526Z,5.75
2023-11-07T17:29:41.533Z,4.13
2023-11-07T17:32:18.016Z,5.03
2023-11-07T17:34:48.129Z,5.85
2023-11-07T17:37:18.066Z,4.60
2023-11-07T17:39:45.267Z,4.28
2023-11-07T17:42:12.755Z,4.55
2023-11-07T17:44:40.771Z,5.28
2023-11-07T17:47:08.526Z,6.18
2023-11-07T17:49:35.722Z,5.55
2023-11-07T17:52:03.673Z,6.95
2023-11-07T17:54:33.764Z,7.07
2023-11-07T17:57:01.197Z,3.42
2023-11-07T17:59:28.723Z,5.00
2023-11-07T18:01:55.955Z,5.93
2023-11-07T18:04:23.113Z,7.78
2023-11-07T18:06:50.586Z,5.43
2023-11-07T18:09:23.205Z,4.03
2023-11-07T18:11:52.154Z,4.72
2023-11-07T18:14:21.304Z,4.45
2023-11-07T18:16:48.441Z,4.65
2023-11-07T18:19:17.198Z,4.60
2023-11-07T18:21:45.402Z,7.22
2023-11-07T18:24:13.142Z,6.78
2023-11-07T18:29:38.962Z,7.93
2023-11-07T18:32:08.261Z,13.07
2023-11-07T18:34:36.750Z,19.17
2023-11-07T18:37:13.137Z,11.82
2023-11-07T18:39:41.103Z,19.70
2023-11-07T18:42:09.748Z,16.30
2023-11-07T18:44:48.404Z,11.10
2023-11-07T18:47:15.737Z,9.30
2023-11-07T18:49:43.204Z,6.40
2023-11-07T18:52:14.613Z,8.55
2023-11-07T18:54:42.667Z,4.50
2023-11-07T18:57:14.427Z,4.95
2023-11-07T18:59:42.464Z,4.82
2023-11-07T19:02:12.307Z,6.45
2023-11-07T19:04:40.711Z,5.97
2023-11-07T19:07:09.393Z,6.13
2023-11-07T19:09:38.409Z,4.18
2023-11-07T19:12:10.823Z,3.35
2023-11-07T19:14:42.240Z,6.53
2023-11-07T19:17:09.835Z,4.93
2023-11-07T19:19:37.573Z,5.88
2023-11-07T19:22:05.181Z,4.68
2023-11-07T19:24:32.852Z,3.78
2023-11-07T19:27:00.365Z,4.82
2023-11-07T19:29:31.083Z,7.47
2023-11-07T19:31:59.037Z,4.00
2023-11-07T19:34:27.268Z,10.00
2023-11-07T19:36:56.876Z,7.88
2023-11-07T19:39:30.558Z,4.65
2023-11-07T19:42:06.479Z,8.52
2023-11-07T19:44:37.361Z,7.88
2023-11-07T19:47:05.235Z,6.20
2023-11-07T19:49:32.665Z,5.22
2023-11-07T19:52:07.085Z,6.18
2023-11-07T19:54:35.432Z,5.53
2023-11-07T19:57:03.265Z,5.38
2023-11-07T19:59:30.733Z,7.78
2023-11-07T20:01:59.644Z,5.20
2023-11-07T20:04:27.016Z,8.90
2023-11-07T20:06:54.565Z,7.40
2023-11-07T20:09:24.827Z,4.00
2023-11-07T20:11:55.040Z,4.15
2023-11-07T20:14:23.138Z,4.20
2023-11-07T20:16:51.027Z,3.90
2023-11-07T20:19:18.362Z,5.38
2023-11-07T20:21:45.912Z,4.30
2023-11-07T20:24:13.289Z,6.65
2023-11-07T20:26:43.424Z,6.10
2023-11-07T20:29:11.013Z,5.18
2023-11-07T20:31:38.504Z,4.78
2023-11-07T20:34:06.343Z,3.92
2023-11-07T20:36:36.858Z,3.90
2023-11-07T20:39:06.811Z,6.30
2023-11-07T20:41:37.500Z,4.57
2023-11-07T20:44:05.465Z,3.42
2023-11-07T20:46:34.738Z,2.58
2023-11-07T20:49:07.006Z,5.93
2023-11-07T20:51:36.666Z,4.85
2023-11-07T20:54:10.410Z,5.35
2023-11-07T20:56:39.317Z,3.63
2023-11-07T20:59:06.855Z,5.65
2023-11-07T21:01:34.399Z,3.55
2023-11-07T21:04:02.643Z,4.80
2023-11-07T21:06:33.795Z,3.85
2023-11-07T21:09:01.646Z,3.90
2023-11-07T21:11:29.363Z,5.10
2023-11-07T21:13:57.345Z,3.17
2023-11-07T21:16:29.867Z,4.03
2023-11-07T21:19:03.597Z,3.60
2023-11-07T21:21:34.177Z,2.92
2023-11-07T21:24:01.736Z,3.08
2023-11-07T21:26:29.517Z,3.45
2023-11-07T21:28:57.464Z,3.05
2023-11-07T21:31:27.352Z,3.30
2023-11-07T21:33:55.001Z,2.40
2023-11-07T21:36:22.797Z,4.57
2023-11-07T21:38:50.280Z,3.42
2023-11-07T21:41:17.450Z,4.55
2023-11-07T21:43:47.905Z,3.10
2023-11-07T21:46:15.673Z,2.45
2023-11-07T21:48:45.202Z,2.92
2023-11-07T21:51:16.377Z,2.00
2023-11-07T21:53:43.830Z,2.85
2023-11-07T21:56:14.239Z,2.75
2023-11-07T21:58:43.372Z,3.17
2023-11-07T22:01:11.143Z,2.83
2023-11-07T22:03:39.175Z,2.95
2023-11-07T22:06:09.299Z,3.63
2023-11-07T22:08:37.052Z,6.20
2023-11-07T22:11:05.948Z,13.15
2023-11-07T22:13:34.094Z,10.30
2023-11-07T22:16:01.376Z,9.38
2023-11-07T22:18:32.008Z,7.55
2023-11-07T22:21:00.637Z,4.43
2023-11-07T22:23:29.532Z,2.33
2023-11-07T22:25:57.582Z,2.63
2023-11-07T22:28:25.488Z,2.75
2023-11-07T22:30:53.901Z,2.38
2023-11-07T22:35:53.704Z,2.53
2023-11-07T22:38:21.640Z,2.67
2023-11-07T22:40:52.422Z,2.00
2023-11-07T22:43:22.951Z,2.13
2023-11-07T22:45:50.547Z,3.25
2023-11-07T22:48:21.804Z,1.05
2023-11-07T22:50:49.459Z,2.47
2023-11-07T22:53:21.263Z,2.55
2023-11-07T22:55:49.853Z,2.83
2023-11-07T22:58:17.124Z,2.45
2023-11-07T23:00:47.636Z,2.03
2023-11-07T23:03:15.719Z,4.75
2023-11-07T23:05:45.270Z,1.42
2023-11-07T23:08:12.786Z,5.10
2023-11-07T23:10:42.113Z,2.47
2023-11-07T23:13:09.794Z,2.10
2023-11-07T23:15:38.778Z,3.08
2023-11-07T23:18:07.049Z,1.88
2023-11-07T23:20:36.973Z,3.78
2023-11-07T23:23:05.043Z,3.88
2023-11-07T23:25:32.667Z,2.90
2023-11-07T23:28:02.623Z,1.73
2023-11-07T23:30:32.126Z,2.22
2023-11-07T23:33:08.011Z,1.80
2023-11-07T23:35:35.947Z,3.30
2023-11-07T23:38:04.983Z,3.42
2023-11-07T23:40:37.164Z,2.83
2023-11-07T23:43:05.299Z,1.48
2023-11-07T23:45:34.858Z,1.08
2023-11-07T23:48:02.536Z,3.72
2023-11-07T23:50:30.015Z,2.53
2023-11-07T23:52:57.398Z,2.88
2023-11-07T23:55:24.702Z,2.25
2023-11-07T23:57:52.887Z,1.50
